createdAt,value
2019-05-06T00:02:24.543Z,94.80
2019-05-06T00:08:27.017Z,94.80
2019-05-06T00:14:29.310Z,95.00
2019-05-06T00:20:31.706Z,95.10
2019-05-06T00:26:56.926Z,95.50
2019-05-06T00:32:57.440Z,95.20
2019-05-06T00:39:01.667Z,95.90
2019-05-06T00:45:05.577Z,96.00
2019-05-06T00:51:07.910Z,95.80
2019-05-06T00:57:10.103Z,95.90
2019-05-06T01:03:14.090Z,95.60
2019-05-06T01:09:20.975Z,95.90
2019-05-06T01:15:25.173Z,96.10
2019-05-06T01:21:28.233Z,96.10
2019-05-06T01:27:30.459Z,96.00
2019-05-06T01:33:34.964Z,95.80
2019-05-06T01:39:58.501Z,95.90
2019-05-06T01:46:00.829Z,96.00
2019-05-06T01:52:04.075Z,96.30
2019-05-06T01:58:06.518Z,96.40
2019-05-06T02:04:08.840Z,96.40
2019-05-06T02:10:11.591Z,96.50
2019-05-06T02:16:14.641Z,96.70
2019-05-06T02:22:21.615Z,96.90
2019-05-06T02:28:24.151Z,96.90
2019-05-06T02:34:36.393Z,97.00
2019-05-06T02:40:42.634Z,97.00
2019-05-06T02:46:45.822Z,97.40
2019-05-06T02:52:48.450Z,97.80
2019-05-06T02:58:53.457Z,97.40
2019-05-06T03:04:54.836Z,97.50
2019-05-06T03:10:57.025Z,97.60
2019-05-06T03:16:59.522Z,97.80
2019-05-06T03:23:06.416Z,97.70
2019-05-06T03:29:08.597Z,97.70
2019-05-06T03:35:31.530Z,97.60
2019-05-06T03:41:16.073Z,97.70
2019-05-06T03:47:35.480Z,98.00
2019-05-06T03:53:37.687Z,98.00
2019-05-06T03:59:43.423Z,97.80
2019-05-06T04:05:45.069Z,97.90
2019-05-06T04:11:48.068Z,98.00
2019-05-06T04:17:53.844Z,98.50
2019-05-06T04:23:58.875Z,99.50
2019-05-06T04:30:04.324Z,98.90
2019-05-06T04:36:09.006Z,98.90
2019-05-06T04:42:13.749Z,98.90
2019-05-06T04:48:15.753Z,98.30
2019-05-06T04:54:26.208Z,97.80
2019-05-06T05:00:24.214Z,97.70
2019-05-06T05:06:27.807Z,97.60
2019-05-06T05:12:38.379Z,97.20
2019-05-06T05:18:45.590Z,97.20
2019-05-06T05:24:52.112Z,97.00
2019-05-06T05:30:55.571Z,96.70
2019-05-06T05:36:59.302Z,96.20
2019-05-06T05:43:23.639Z,96.10
2019-05-06T05:49:32.488Z,95.30
2019-05-06T05:55:34.943Z,94.40
2019-05-06T06:01:37.350Z,93.90
2019-05-06T06:07:39.641Z,93.50
2019-05-06T06:13:43.789Z,92.60
2019-05-06T06:20:02.618Z,92.00
2019-05-06T06:26:05.472Z,90.80
2019-05-06T06:32:13.797Z,90.30
2019-05-06T06:38:35.000Z,86.10
2019-05-06T06:44:57.793Z,82.10
2019-05-06T06:51:03.319Z,79.20
2019-05-06T06:57:09.905Z,74.20
2019-05-06T07:03:29.454Z,72.20
2019-05-06T07:09:41.942Z,69.80
2019-05-06T07:15:45.375Z,70.50
2019-05-06T07:21:53.525Z,69.80
2019-05-06T07:27:56.364Z,70.60
2019-05-06T07:33:59.005Z,66.30
2019-05-06T07:40:03.022Z,62.70
2019-05-06T07:46:16.720Z,63.80
2019-05-06T07:52:20.028Z,63.50
2019-05-06T07:58:25.773Z,65.30
2019-05-06T08:04:28.136Z,65.70
2019-05-06T08:10:32.917Z,70.50
2019-05-06T08:16:38.462Z,72.80
2019-05-06T08:22:48.243Z,75.00
2019-05-06T08:28:52.712Z,75.00
2019-05-06T08:34:54.930Z,76.60
2019-05-06T08:40:57.220Z,76.00
2019-05-06T08:47:02.641Z,79.00
2019-05-06T08:53:18.622Z,79.80
2019-05-06T08:59:20.838Z,78.60
2019-05-06T09:05:26.308Z,80.90
2019-05-06T09:11:29.327Z,78.50
2019-05-06T09:17:33.037Z,75.30
2019-05-06T09:23:35.531Z,77.20
2019-05-06T09:29:43.029Z,76.20
2019-05-06T09:35:46.033Z,74.50
2019-05-06T09:41:49.496Z,73.20
2019-05-06T09:47:54.349Z,73.80
2019-05-06T09:54:05.370Z,72.50
2019-05-06T10:00:08.017Z,72.50
2019-05-06T10:06:10.326Z,72.40
2019-05-06T10:12:12.858Z,72.40
2019-05-06T10:18:15.817Z,73.30
2019-05-06T10:24:18.210Z,71.70
2019-05-06T10:30:22.535Z,70.70
2019-05-06T10:36:32.445Z,67.70
2019-05-06T10:42:39.874Z,62.10
2019-05-06T10:48:43.743Z,57.90
2019-05-06T10:54:46.457Z,56.30
2019-05-06T11:00:52.875Z,56.80
2019-05-06T11:06:55.669Z,59.20
2019-05-06T11:12:58.005Z,60.50
2019-05-06T11:19:02.095Z,62.10
2019-05-06T11:25:04.873Z,61.40
2019-05-06T11:31:09.397Z,61.70
2019-05-06T11:37:18.981Z,61.00
2019-05-06T11:43:22.730Z,62.20
2019-05-06T11:49:28.695Z,60.00
2019-05-06T11:55:38.562Z,58.80
2019-05-06T12:01:39.184Z,56.10
2019-05-06T12:07:44.888Z,55.00
2019-05-06T12:13:45.796Z,56.70
2019-05-06T12:19:48.271Z,58.00
2019-05-06T12:25:52.786Z,58.30
2019-05-06T12:31:59.812Z,57.80
2019-05-06T12:38:11.370Z,58.30
2019-05-06T12:44:09.533Z,55.10
2019-05-06T12:50:16.936Z,56.40
2019-05-06T12:56:20.723Z,55.10
2019-05-06T13:02:23.765Z,55.40
2019-05-06T13:08:32.685Z,55.40
2019-05-06T13:14:32.939Z,55.50
2019-05-06T13:20:36.339Z,54.90
2019-05-06T13:26:38.629Z,55.60
2019-05-06T13:32:45.883Z,54.50
2019-05-06T13:38:48.197Z,55.10
2019-05-06T13:44:50.715Z,55.20
2019-05-06T13:50:56.710Z,56.10
2019-05-06T13:56:58.996Z,54.30
2019-05-06T14:03:02.577Z,52.10
2019-05-06T14:09:06.379Z,52.70
2019-05-06T14:15:12.443Z,54.80
2019-05-06T14:21:15.197Z,55.90
2019-05-06T14:27:22.101Z,55.30
2019-05-06T14:33:27.471Z,55.70
2019-05-06T14:39:49.026Z,54.40
2019-05-06T14:45:37.791Z,51.70
2019-05-06T14:51:42.608Z,50.50
2019-05-06T14:57:46.428Z,51.80
2019-05-06T15:03:48.985Z,52.50
2019-05-06T15:10:02.470Z,57.50
2019-05-06T15:15:58.528Z,59.70
2019-05-06T15:22:02.229Z,60.00
2019-05-06T15:28:07.529Z,60.00
2019-05-06T15:34:14.593Z,60.40
2019-05-06T15:40:31.017Z,60.10
2019-05-06T15:46:22.859Z,59.00
2019-05-06T15:52:26.207Z,59.60
2019-05-06T15:58:29.380Z,60.10
2019-05-06T16:04:32.827Z,59.00
2019-05-06T16:10:51.206Z,59.50
2019-05-06T16:16:42.989Z,57.30
2019-05-06T16:22:47.345Z,54.90
2019-05-06T16:28:49.785Z,52.50
2019-05-06T16:34:53.113Z,53.20
2019-05-06T16:41:09.454Z,53.80
2019-05-06T16:47:02.705Z,52.60
2019-05-06T16:53:05.383Z,54.20
2019-05-06T16:59:27.370Z,52.80
2019-05-06T17:05:33.648Z,53.00
2019-05-06T17:11:35.717Z,54.60
2019-05-06T17:17:43.198Z,54.10
2019-05-06T17:23:42.420Z,55.70
2019-05-06T17:29:47.850Z,55.90
2019-05-06T17:35:52.038Z,57.80
2019-05-06T17:41:55.152Z,58.80
2019-05-06T17:48:07.360Z,60.00
2019-05-06T17:54:12.356Z,61.60
2019-05-06T18:00:15.885Z,63.90
2019-05-06T18:06:19.557Z,65.30
2019-05-06T18:12:23.385Z,65.60
2019-05-06T18:18:28.968Z,66.10
2019-05-06T18:24:33.072Z,66.20
2019-05-06T18:30:39.107Z,66.70
2019-05-06T18:36:43.171Z,66.80
2019-05-06T18:42:47.246Z,67.00
2019-05-06T18:48:54.144Z,66.80
2019-05-06T18:55:00.799Z,67.40
2019-05-06T19:01:06.790Z,67.60
2019-05-06T19:07:14.497Z,68.00
2019-05-06T19:13:14.333Z,68.90
2019-05-06T19:19:16.861Z,68.60
2019-05-06T19:25:22.676Z,68.90
2019-05-06T19:31:25.625Z,69.30
2019-05-06T19:37:29.270Z,68.50
2019-05-06T19:43:35.127Z,69.60
2019-05-06T19:49:38.294Z,70.10
2019-05-06T19:55:46.648Z,69.70
2019-05-06T20:01:47.442Z,70.30
2019-05-06T20:07:55.427Z,70.40
2019-05-06T20:13:59.294Z,70.80
2019-05-06T20:20:02.888Z,70.90
2019-05-06T20:26:08.242Z,71.40
2019-05-06T20:32:12.222Z,71.80
2019-05-06T20:38:16.129Z,72.10
2019-05-06T20:44:18.768Z,72.30
2019-05-06T20:50:22.528Z,74.40
2019-05-06T20:56:35.407Z,75.60
2019-05-06T21:02:39.517Z,78.30
2019-05-06T21:08:42.224Z,78.60
2019-05-06T21:14:46.129Z,79.00
2019-05-06T21:20:48.632Z,78.80
2019-05-06T21:26:53.306Z,79.00
2019-05-06T21:32:55.804Z,79.30
2019-05-06T21:38:58.971Z,80.00
2019-05-06T21:45:03.225Z,80.50
2019-05-06T21:51:05.772Z,80.90
2019-05-06T21:57:12.125Z,81.50
2019-05-06T22:03:13.462Z,82.80
2019-05-06T22:09:18.748Z,82.90
2019-05-06T22:57:52.917Z,85.80
2019-05-06T23:03:55.289Z,85.40
2019-05-06T23:09:59.106Z,84.80
2019-05-06T23:16:02.090Z,83.90
2019-05-06T23:22:06.453Z,83.80
2019-05-06T23:28:16.163Z,83.60
2019-05-06T23:34:18.515Z,83.80
2019-05-06T23:40:57.592Z,83.80
2019-05-06T23:47:36.546Z,83.70
2019-05-06T23:54:15.017Z,83.50
